Impacts TAF Board
For situational awareness. Not to be used for flight planning purposes.
IDs:

KDFW - Dallas-Ft Worth Intl, TX, US

Issued at 2111 UTC 15 Oct 2018
Updated at 2127 UTC 15 Oct 2018
Potential Impact None Slight Moderate High
Time<<16/10Z 16/11Z 16/12Z 16/13Z 16/14Z 16/15Z 16/16Z 16/17Z 16/18Z 16/19Z 16/20Z 16/21Z 16/22Z>>
Type PRVL PRVL PRVL PRVL PRVL PRVL PRVL PRVL PRVL PRVL PRVL PRVL PRVL
VIS 2 2 2 2 2 5 5 5 5 5 5 5 5
CIG 15 7 7 7 7 7 7 7 7 7 7 7 7
Cover OVC BKN BKN BKN BKN BKN BKN BKN BKN BKN BKN BKN BKN
FltCat IFR IFR IFR IFR IFR IFR IFR IFR IFR IFR IFR IFR IFR
WX RA RA RA RA RA RA RA RA RA RA RA RA RA
WDir 10 10 10 10 10 360 360 360 360 360 360 360 360
WSpd 16 3 3 3 3 15 15 15 15 15 15 15 15
WGst -- -- -- -- -- -- -- -- -- -- -- -- --
Raw TAF
KDFW 152111Z 1521/1624 36017KT P6SM -RA OVC015
  FM160500 01016KT 2SM RA OVC015
  FM161100 01003KT 2SM RA BKN007
  FM161500 36015KT 5SM RA BKN007


METAR Board
Radar Display
Forecast Discussion
For situational awareness. Not to be used for flight planning purposes.